sensor_id;sensor_type;location;lat;lon;timestamp;P1;durP1;ratioP1;P2;durP2;ratioP2
55545;SDS011;44768;50.298;127.520;2023-03-14T00:04:43;24.15;;;9.63;;
55545;SDS011;44768;50.298;127.520;2023-03-14T00:10:07;21.42;;;8.15;;
55545;SDS011;44768;50.298;127.520;2023-03-14T00:15:27;19.85;;;6.75;;
55545;SDS011;44768;50.298;127.520;2023-03-14T00:20:47;15.52;;;5.78;;
55545;SDS011;44768;50.298;127.520;2023-03-14T00:26:08;19.30;;;5.38;;
55545;SDS011;44768;50.298;127.520;2023-03-14T00:31:28;13.10;;;4.68;;
55545;SDS011;44768;50.298;127.520;2023-03-14T00:36:47;7.07;;;3.47;;
55545;SDS011;44768;50.298;127.520;2023-03-14T00:42:07;9.23;;;3.78;;
55545;SDS011;44768;50.298;127.520;2023-03-14T00:47:26;6.68;;;3.22;;
55545;SDS011;44768;50.298;127.520;2023-03-14T00:52:46;7.50;;;3.25;;
55545;SDS011;44768;50.298;127.520;2023-03-14T00:57:49;9.85;;;3.20;;
55545;SDS011;44768;50.298;127.520;2023-03-14T01:02:51;5.07;;;2.97;;
55545;SDS011;44768;50.298;127.520;2023-03-14T01:07:52;5.20;;;2.60;;
55545;SDS011;44768;50.298;127.520;2023-03-14T01:12:54;10.85;;;2.65;;
55545;SDS011;44768;50.298;127.520;2023-03-14T01:17:55;21.58;;;2.58;;
55545;SDS011;44768;50.298;127.520;2023-03-14T01:22:57;6.10;;;2.60;;
55545;SDS011;44768;50.298;127.520;2023-03-14T01:27:58;4.57;;;2.35;;
55545;SDS011;44768;50.298;127.520;2023-03-14T01:33:01;37.50;;;10.65;;
55545;SDS011;44768;50.298;127.520;2023-03-14T01:38:02;81.10;;;16.13;;
55545;SDS011;44768;50.298;127.520;2023-03-14T01:43:12;31.05;;;10.05;;
55545;SDS011;44768;50.298;127.520;2023-03-14T01:48:14;38.58;;;8.73;;
55545;SDS011;44768;50.298;127.520;2023-03-14T01:53:16;26.75;;;8.65;;
55545;SDS011;44768;50.298;127.520;2023-03-14T01:58:21;29.67;;;8.32;;
55545;SDS011;44768;50.298;127.520;2023-03-14T02:03:23;25.70;;;7.35;;
55545;SDS011;44768;50.298;127.520;2023-03-14T02:08:26;25.23;;;6.82;;
55545;SDS011;44768;50.298;127.520;2023-03-14T02:13:28;20.08;;;5.85;;
55545;SDS011;44768;50.298;127.520;2023-03-14T02:18:30;17.75;;;6.40;;
55545;SDS011;44768;50.298;127.520;2023-03-14T02:23:47;22.40;;;7.05;;
55545;SDS011;44768;50.298;127.520;2023-03-14T02:28:52;17.30;;;6.87;;
55545;SDS011;44768;50.298;127.520;2023-03-14T02:33:54;17.38;;;6.45;;
55545;SDS011;44768;50.298;127.520;2023-03-14T02:39:11;16.98;;;5.28;;
55545;SDS011;44768;50.298;127.520;2023-03-14T02:44:14;16.63;;;5.30;;
55545;SDS011;44768;50.298;127.520;2023-03-14T02:49:15;13.27;;;5.25;;
55545;SDS011;44768;50.298;127.520;2023-03-14T02:54:17;13.70;;;5.47;;
55545;SDS011;44768;50.298;127.520;2023-03-14T02:59:20;15.80;;;5.82;;
55545;SDS011;44768;50.298;127.520;2023-03-14T03:04:21;18.25;;;4.30;;
55545;SDS011;44768;50.298;127.520;2023-03-14T03:09:23;13.40;;;4.88;;
55545;SDS011;44768;50.298;127.520;2023-03-14T03:14:25;13.15;;;4.80;;
55545;SDS011;44768;50.298;127.520;2023-03-14T03:19:26;10.48;;;4.70;;
55545;SDS011;44768;50.298;127.520;2023-03-14T03:24:28;10.38;;;4.22;;
55545;SDS011;44768;50.298;127.520;2023-03-14T03:29:29;18.35;;;4.57;;
55545;SDS011;44768;50.298;127.520;2023-03-14T03:34:30;12.88;;;4.20;;
55545;SDS011;44768;50.298;127.520;2023-03-14T03:39:31;10.10;;;3.67;;
55545;SDS011;44768;50.298;127.520;2023-03-14T03:44:32;6.82;;;3.10;;
55545;SDS011;44768;50.298;127.520;2023-03-14T03:49:34;6.90;;;3.10;;
55545;SDS011;44768;50.298;127.520;2023-03-14T03:54:35;5.50;;;2.95;;
55545;SDS011;44768;50.298;127.520;2023-03-14T03:59:36;6.28;;;2.78;;
55545;SDS011;44768;50.298;127.520;2023-03-14T04:04:39;4.22;;;2.63;;
55545;SDS011;44768;50.298;127.520;2023-03-14T04:09:41;4.30;;;2.42;;
55545;SDS011;44768;50.298;127.520;2023-03-14T04:14:42;6.82;;;2.63;;
55545;SDS011;44768;50.298;127.520;2023-03-14T04:19:44;4.25;;;2.28;;
55545;SDS011;44768;50.298;127.520;2023-03-14T04:24:45;4.07;;;2.38;;
55545;SDS011;44768;50.298;127.520;2023-03-14T04:29:47;4.72;;;2.75;;
55545;SDS011;44768;50.298;127.520;2023-03-14T04:34:48;2.65;;;2.00;;
55545;SDS011;44768;50.298;127.520;2023-03-14T04:39:49;7.45;;;2.50;;
55545;SDS011;44768;50.298;127.520;2023-03-14T04:44:50;4.30;;;2.10;;
55545;SDS011;44768;50.298;127.520;2023-03-14T04:49:51;3.80;;;2.30;;
55545;SDS011;44768;50.298;127.520;2023-03-14T04:54:52;5.35;;;2.20;;
55545;SDS011;44768;50.298;127.520;2023-03-14T04:59:53;3.13;;;1.80;;
55545;SDS011;44768;50.298;127.520;2023-03-14T05:04:55;2.17;;;1.70;;
55545;SDS011;44768;50.298;127.520;2023-03-14T05:09:56;3.05;;;1.95;;
55545;SDS011;44768;50.298;127.520;2023-03-14T05:14:58;3.22;;;1.85;;
55545;SDS011;44768;50.298;127.520;2023-03-14T05:19:59;3.22;;;1.90;;
55545;SDS011;44768;50.298;127.520;2023-03-14T05:25:01;3.42;;;2.17;;
55545;SDS011;44768;50.298;127.520;2023-03-14T05:30:04;3.53;;;1.83;;
55545;SDS011;44768;50.298;127.520;2023-03-14T05:35:06;2.45;;;1.90;;
55545;SDS011;44768;50.298;127.520;2023-03-14T05:40:07;2.72;;;1.90;;
55545;SDS011;44768;50.298;127.520;2023-03-14T05:45:09;2.85;;;1.58;;
55545;SDS011;44768;50.298;127.520;2023-03-14T05:50:10;2.72;;;1.70;;
55545;SDS011;44768;50.298;127.520;2023-03-14T05:55:11;13.50;;;2.22;;
55545;SDS011;44768;50.298;127.520;2023-03-14T06:00:13;3.63;;;2.08;;
55545;SDS011;44768;50.298;127.520;2023-03-14T06:05:15;4.82;;;1.92;;
55545;SDS011;44768;50.298;127.520;2023-03-14T06:10:17;5.13;;;2.08;;
55545;SDS011;44768;50.298;127.520;2023-03-14T06:15:28;5.82;;;1.98;;
55545;SDS011;44768;50.298;127.520;2023-03-14T06:20:30;9.32;;;2.00;;
55545;SDS011;44768;50.298;127.520;2023-03-14T06:25:31;5.43;;;1.63;;
55545;SDS011;44768;50.298;127.520;2023-03-14T06:30:33;2.53;;;1.65;;
55545;SDS011;44768;50.298;127.520;2023-03-14T06:35:34;3.75;;;1.73;;
55545;SDS011;44768;50.298;127.520;2023-03-14T06:40:35;3.35;;;1.95;;
55545;SDS011;44768;50.298;127.520;2023-03-14T06:51:04;6.95;;;1.75;;
55545;SDS011;44768;50.298;127.520;2023-03-14T06:56:15;2.05;;;1.42;;
55545;SDS011;44768;50.298;127.520;2023-03-14T07:01:26;5.45;;;1.80;;
55545;SDS011;44768;50.298;127.520;2023-03-14T07:06:28;4.00;;;1.67;;
55545;SDS011;44768;50.298;127.520;2023-03-14T07:11:30;4.03;;;1.75;;
55545;SDS011;44768;50.298;127.520;2023-03-14T07:16:31;10.73;;;2.00;;
55545;SDS011;44768;50.298;127.520;2023-03-14T07:21:34;3.33;;;1.77;;
55545;SDS011;44768;50.298;127.520;2023-03-14T07:26:35;2.05;;;1.50;;
55545;SDS011;44768;50.298;127.520;2023-03-14T07:31:36;4.22;;;2.03;;
55545;SDS011;44768;50.298;127.520;2023-03-14T07:36:38;2.50;;;1.30;;
55545;SDS011;44768;50.298;127.520;2023-03-14T07:41:39;2.75;;;1.55;;
55545;SDS011;44768;50.298;127.520;2023-03-14T07:46:40;3.03;;;1.80;;
55545;SDS011;44768;50.298;127.520;2023-03-14T07:51:41;3.15;;;1.52;;
55545;SDS011;44768;50.298;127.520;2023-03-14T07:56:44;3.50;;;1.80;;
55545;SDS011;44768;50.298;127.520;2023-03-14T08:01:47;7.78;;;1.50;;
55545;SDS011;44768;50.298;127.520;2023-03-14T08:06:49;3.08;;;1.60;;
55545;SDS011;44768;50.298;127.520;2023-03-14T08:11:55;2.85;;;1.48;;
55545;SDS011;44768;50.298;127.520;2023-03-14T08:16:56;9.90;;;1.63;;
55545;SDS011;44768;50.298;127.520;2023-03-14T08:21:58;3.30;;;1.80;;
55545;SDS011;44768;50.298;127.520;2023-03-14T08:26:59;2.75;;;1.50;;
55545;SDS011;44768;50.298;127.520;2023-03-14T08:32:00;7.55;;;3.20;;
55545;SDS011;44768;50.298;127.520;2023-03-14T08:37:02;5.20;;;1.88;;
55545;SDS011;44768;50.298;127.520;2023-03-14T08:42:03;2.65;;;2.20;;
55545;SDS011;44768;50.298;127.520;2023-03-14T08:47:04;8.10;;;3.00;;
55545;SDS011;44768;50.298;127.520;2023-03-14T08:52:05;10.98;;;2.50;;
55545;SDS011;44768;50.298;127.520;2023-03-14T08:57:06;8.70;;;2.50;;
55545;SDS011;44768;50.298;127.520;2023-03-14T09:02:10;9.35;;;2.63;;
55545;SDS011;44768;50.298;127.520;2023-03-14T09:07:12;10.43;;;3.03;;
55545;SDS011;44768;50.298;127.520;2023-03-14T09:12:13;9.05;;;2.40;;
55545;SDS011;44768;50.298;127.520;2023-03-14T09:17:14;13.00;;;2.50;;
55545;SDS011;44768;50.298;127.520;2023-03-14T09:22:16;9.98;;;2.80;;
55545;SDS011;44768;50.298;127.520;2023-03-14T09:27:17;12.05;;;2.38;;
55545;SDS011;44768;50.298;127.520;2023-03-14T09:32:19;5.15;;;2.30;;
55545;SDS011;44768;50.298;127.520;2023-03-14T09:37:20;4.25;;;2.30;;
55545;SDS011;44768;50.298;127.520;2023-03-14T09:42:23;7.43;;;2.40;;
55545;SDS011;44768;50.298;127.520;2023-03-14T09:47:26;11.60;;;2.40;;
55545;SDS011;44768;50.298;127.520;2023-03-14T09:52:35;9.68;;;2.63;;
55545;SDS011;44768;50.298;127.520;2023-03-14T09:57:37;8.57;;;2.70;;
55545;SDS011;44768;50.298;127.520;2023-03-14T10:02:41;10.60;;;3.00;;
55545;SDS011;44768;50.298;127.520;2023-03-14T10:07:43;5.88;;;2.55;;
55545;SDS011;44768;50.298;127.520;2023-03-14T10:12:54;19.52;;;3.08;;
55545;SDS011;44768;50.298;127.520;2023-03-14T10:22:57;6.03;;;3.13;;
55545;SDS011;44768;50.298;127.520;2023-03-14T10:27:59;10.68;;;3.80;;
55545;SDS011;44768;50.298;127.520;2023-03-14T10:38:22;7.22;;;4.03;;
55545;SDS011;44768;50.298;127.520;2023-03-14T10:43:26;7.05;;;4.32;;
55545;SDS011;44768;50.298;127.520;2023-03-14T10:48:35;7.32;;;3.70;;
55545;SDS011;44768;50.298;127.520;2023-03-14T10:58:40;11.57;;;4.72;;
55545;SDS011;44768;50.298;127.520;2023-03-14T11:03:43;8.75;;;4.13;;
55545;SDS011;44768;50.298;127.520;2023-03-14T11:19:03;6.78;;;3.75;;
55545;SDS011;44768;50.298;127.520;2023-03-14T11:24:14;8.93;;;4.18;;
55545;SDS011;44768;50.298;127.520;2023-03-14T11:34:41;7.35;;;3.92;;
55545;SDS011;44768;50.298;127.520;2023-03-14T11:39:45;5.72;;;3.63;;
55545;SDS011;44768;50.298;127.520;2023-03-14T11:44:48;7.72;;;4.15;;
55545;SDS011;44768;50.298;127.520;2023-03-14T12:00:17;7.45;;;4.00;;
55545;SDS011;44768;50.298;127.520;2023-03-14T12:05:25;6.60;;;3.65;;
55545;SDS011;44768;50.298;127.520;2023-03-14T12:10:27;10.05;;;3.78;;
55545;SDS011;44768;50.298;127.520;2023-03-14T12:15:29;5.78;;;3.75;;
55545;SDS011;44768;50.298;127.520;2023-03-14T12:20:31;8.90;;;3.97;;
55545;SDS011;44768;50.298;127.520;2023-03-14T12:25:40;7.22;;;3.97;;
55545;SDS011;44768;50.298;127.520;2023-03-14T12:30:41;9.30;;;4.20;;
55545;SDS011;44768;50.298;127.520;2023-03-14T12:35:49;6.25;;;3.90;;
55545;SDS011;44768;50.298;127.520;2023-03-14T12:41:11;9.73;;;4.53;;
55545;SDS011;44768;50.298;127.520;2023-03-14T12:46:19;6.55;;;3.97;;
55545;SDS011;44768;50.298;127.520;2023-03-14T12:51:27;16.55;;;4.22;;
55545;SDS011;44768;50.298;127.520;2023-03-14T13:01:33;11.23;;;5.18;;
55545;SDS011;44768;50.298;127.520;2023-03-14T13:11:55;19.17;;;6.07;;
55545;SDS011;44768;50.298;127.520;2023-03-14T13:17:02;18.80;;;6.43;;
55545;SDS011;44768;50.298;127.520;2023-03-14T13:22:20;16.25;;;7.65;;
55545;SDS011;44768;50.298;127.520;2023-03-14T13:27:22;30.65;;;8.48;;
55545;SDS011;44768;50.298;127.520;2023-03-14T13:32:27;24.67;;;10.27;;
55545;SDS011;44768;50.298;127.520;2023-03-14T13:37:29;24.35;;;9.55;;
55545;SDS011;44768;50.298;127.520;2023-03-14T13:42:30;28.10;;;9.10;;
55545;SDS011;44768;50.298;127.520;2023-03-14T13:47:31;31.77;;;8.95;;
55545;SDS011;44768;50.298;127.520;2023-03-14T13:52:36;19.38;;;8.70;;
55545;SDS011;44768;50.298;127.520;2023-03-14T14:02:45;24.95;;;9.27;;
55545;SDS011;44768;50.298;127.520;2023-03-14T14:07:46;18.83;;;8.98;;
55545;SDS011;44768;50.298;127.520;2023-03-14T14:12:50;21.95;;;9.80;;
55545;SDS011;44768;50.298;127.520;2023-03-14T14:17:54;25.60;;;10.70;;
55545;SDS011;44768;50.298;127.520;2023-03-14T14:22:58;19.55;;;9.55;;
55545;SDS011;44768;50.298;127.520;2023-03-14T14:28:14;20.83;;;11.40;;
55545;SDS011;44768;50.298;127.520;2023-03-14T14:33:19;18.23;;;10.00;;
55545;SDS011;44768;50.298;127.520;2023-03-14T14:38:20;22.10;;;10.73;;
55545;SDS011;44768;50.298;127.520;2023-03-14T14:43:23;18.27;;;10.30;;
55545;SDS011;44768;50.298;127.520;2023-03-14T14:48:26;22.63;;;11.38;;
55545;SDS011;44768;50.298;127.520;2023-03-14T14:53:29;18.15;;;10.55;;
55545;SDS011;44768;50.298;127.520;2023-03-14T14:58:35;22.42;;;11.40;;
55545;SDS011;44768;50.298;127.520;2023-03-14T15:03:41;16.75;;;10.25;;
55545;SDS011;44768;50.298;127.520;2023-03-14T15:08:43;22.77;;;11.93;;
55545;SDS011;44768;50.298;127.520;2023-03-14T15:13:44;18.35;;;11.15;;
55545;SDS011;44768;50.298;127.520;2023-03-14T15:18:53;24.27;;;11.90;;
55545;SDS011;44768;50.298;127.520;2023-03-14T15:23:58;25.75;;;12.75;;
55545;SDS011;44768;50.298;127.520;2023-03-14T15:29:00;22.13;;;11.95;;
55545;SDS011;44768;50.298;127.520;2023-03-14T15:34:01;21.60;;;11.25;;
55545;SDS011;44768;50.298;127.520;2023-03-14T15:39:03;28.30;;;11.75;;
55545;SDS011;44768;50.298;127.520;2023-03-14T15:44:04;22.58;;;12.45;;
55545;SDS011;44768;50.298;127.520;2023-03-14T15:49:07;20.33;;;11.75;;
55545;SDS011;44768;50.298;127.520;2023-03-14T15:54:08;22.92;;;11.88;;
55545;SDS011;44768;50.298;127.520;2023-03-14T15:59:09;22.80;;;12.35;;
55545;SDS011;44768;50.298;127.520;2023-03-14T16:04:11;19.55;;;11.50;;
55545;SDS011;44768;50.298;127.520;2023-03-14T16:09:12;30.98;;;13.07;;
55545;SDS011;44768;50.298;127.520;2023-03-14T16:14:13;20.38;;;12.32;;
55545;SDS011;44768;50.298;127.520;2023-03-14T16:19:15;21.40;;;12.02;;
55545;SDS011;44768;50.298;127.520;2023-03-14T16:24:16;27.20;;;12.25;;
55545;SDS011;44768;50.298;127.520;2023-03-14T16:29:18;21.17;;;11.52;;
55545;SDS011;44768;50.298;127.520;2023-03-14T16:34:19;21.08;;;12.07;;
55545;SDS011;44768;50.298;127.520;2023-03-14T16:39:20;20.63;;;12.27;;
55545;SDS011;44768;50.298;127.520;2023-03-14T16:44:21;21.95;;;12.88;;
55545;SDS011;44768;50.298;127.520;2023-03-14T16:49:23;20.95;;;12.27;;
55545;SDS011;44768;50.298;127.520;2023-03-14T16:54:24;29.10;;;13.10;;
55545;SDS011;44768;50.298;127.520;2023-03-14T16:59:26;23.70;;;12.95;;
55545;SDS011;44768;50.298;127.520;2023-03-14T17:04:30;20.38;;;12.32;;
55545;SDS011;44768;50.298;127.520;2023-03-14T17:09:31;20.63;;;12.18;;
55545;SDS011;44768;50.298;127.520;2023-03-14T17:14:32;23.83;;;12.13;;
55545;SDS011;44768;50.298;127.520;2023-03-14T17:19:34;18.20;;;10.82;;
55545;SDS011;44768;50.298;127.520;2023-03-14T17:24:36;21.30;;;11.57;;
55545;SDS011;44768;50.298;127.520;2023-03-14T17:29:38;19.30;;;11.82;;
55545;SDS011;44768;50.298;127.520;2023-03-14T17:34:39;17.95;;;10.60;;
55545;SDS011;44768;50.298;127.520;2023-03-14T17:39:40;18.67;;;11.07;;
55545;SDS011;44768;50.298;127.520;2023-03-14T17:44:41;16.77;;;10.75;;
55545;SDS011;44768;50.298;127.520;2023-03-14T17:49:42;19.67;;;11.10;;
55545;SDS011;44768;50.298;127.520;2023-03-14T17:54:46;17.83;;;10.93;;
55545;SDS011;44768;50.298;127.520;2023-03-14T17:59:47;17.55;;;10.20;;
55545;SDS011;44768;50.298;127.520;2023-03-14T18:04:49;16.90;;;10.20;;
55545;SDS011;44768;50.298;127.520;2023-03-14T18:09:51;18.88;;;10.13;;
55545;SDS011;44768;50.298;127.520;2023-03-14T18:14:53;20.60;;;10.85;;
55545;SDS011;44768;50.298;127.520;2023-03-14T18:19:54;18.05;;;9.98;;
55545;SDS011;44768;50.298;127.520;2023-03-14T18:24:57;17.85;;;9.80;;
55545;SDS011;44768;50.298;127.520;2023-03-14T18:29:59;14.35;;;9.13;;
55545;SDS011;44768;50.298;127.520;2023-03-14T18:35:00;16.35;;;9.13;;
55545;SDS011;44768;50.298;127.520;2023-03-14T18:40:01;15.38;;;9.00;;
55545;SDS011;44768;50.298;127.520;2023-03-14T18:45:06;13.05;;;7.95;;
55545;SDS011;44768;50.298;127.520;2023-03-14T18:50:07;13.45;;;7.63;;
55545;SDS011;44768;50.298;127.520;2023-03-14T18:55:09;13.13;;;8.40;;
55545;SDS011;44768;50.298;127.520;2023-03-14T19:00:10;12.23;;;7.72;;
55545;SDS011;44768;50.298;127.520;2023-03-14T19:05:13;16.50;;;8.13;;
55545;SDS011;44768;50.298;127.520;2023-03-14T19:10:15;11.80;;;7.88;;
55545;SDS011;44768;50.298;127.520;2023-03-14T19:15:16;11.50;;;8.00;;
55545;SDS011;44768;50.298;127.520;2023-03-14T19:20:17;12.35;;;7.43;;
55545;SDS011;44768;50.298;127.520;2023-03-14T19:25:19;16.25;;;7.75;;
55545;SDS011;44768;50.298;127.520;2023-03-14T19:30:21;10.63;;;7.18;;
55545;SDS011;44768;50.298;127.520;2023-03-14T19:35:22;9.60;;;6.40;;
55545;SDS011;44768;50.298;127.520;2023-03-14T19:40:23;11.73;;;7.45;;
55545;SDS011;44768;50.298;127.520;2023-03-14T19:45:24;11.80;;;6.78;;
55545;SDS011;44768;50.298;127.520;2023-03-14T19:50:32;11.23;;;6.70;;
55545;SDS011;44768;50.298;127.520;2023-03-14T19:55:33;11.50;;;6.90;;
55545;SDS011;44768;50.298;127.520;2023-03-14T20:00:35;12.05;;;7.10;;
55545;SDS011;44768;50.298;127.520;2023-03-14T20:05:39;11.00;;;6.57;;
55545;SDS011;44768;50.298;127.520;2023-03-14T20:10:41;10.05;;;5.97;;
55545;SDS011;44768;50.298;127.520;2023-03-14T20:15:42;9.63;;;6.32;;
55545;SDS011;44768;50.298;127.520;2023-03-14T20:20:44;10.45;;;6.30;;
55545;SDS011;44768;50.298;127.520;2023-03-14T20:25:52;8.98;;;5.82;;
55545;SDS011;44768;50.298;127.520;2023-03-14T20:30:54;11.27;;;5.97;;
55545;SDS011;44768;50.298;127.520;2023-03-14T20:35:56;14.35;;;6.00;;
55545;SDS011;44768;50.298;127.520;2023-03-14T20:40:58;8.85;;;5.85;;
55545;SDS011;44768;50.298;127.520;2023-03-14T20:46:00;11.32;;;4.85;;
55545;SDS011;44768;50.298;127.520;2023-03-14T20:51:02;9.77;;;5.43;;
55545;SDS011;44768;50.298;127.520;2023-03-14T20:56:04;8.05;;;5.40;;
55545;SDS011;44768;50.298;127.520;2023-03-14T21:01:05;9.38;;;5.30;;
55545;SDS011;44768;50.298;127.520;2023-03-14T21:06:10;8.15;;;5.15;;
55545;SDS011;44768;50.298;127.520;2023-03-14T21:11:11;7.95;;;5.13;;
55545;SDS011;44768;50.298;127.520;2023-03-14T21:16:12;6.95;;;4.63;;
55545;SDS011;44768;50.298;127.520;2023-03-14T21:21:14;17.90;;;4.90;;
55545;SDS011;44768;50.298;127.520;2023-03-14T21:26:16;10.85;;;4.13;;
55545;SDS011;44768;50.298;127.520;2023-03-14T21:31:18;14.13;;;4.43;;
55545;SDS011;44768;50.298;127.520;2023-03-14T21:36:19;10.80;;;6.30;;
55545;SDS011;44768;50.298;127.520;2023-03-14T21:41:20;12.88;;;9.10;;
55545;SDS011;44768;50.298;127.520;2023-03-14T21:46:22;11.50;;;8.27;;
55545;SDS011;44768;50.298;127.520;2023-03-14T21:51:26;15.68;;;7.28;;
55545;SDS011;44768;50.298;127.520;2023-03-14T21:56:29;10.60;;;6.30;;
55545;SDS011;44768;50.298;127.520;2023-03-14T22:01:30;11.02;;;5.68;;
55545;SDS011;44768;50.298;127.520;2023-03-14T22:06:32;11.60;;;6.00;;
55545;SDS011;44768;50.298;127.520;2023-03-14T22:11:34;10.98;;;5.97;;
55545;SDS011;44768;50.298;127.520;2023-03-14T22:16:35;16.35;;;6.20;;
55545;SDS011;44768;50.298;127.520;2023-03-14T22:21:37;12.43;;;5.28;;
55545;SDS011;44768;50.298;127.520;2023-03-14T22:26:39;16.75;;;5.95;;
55545;SDS011;44768;50.298;127.520;2023-03-14T22:31:41;14.38;;;5.78;;
55545;SDS011;44768;50.298;127.520;2023-03-14T22:36:42;21.48;;;5.85;;
55545;SDS011;44768;50.298;127.520;2023-03-14T22:41:43;24.60;;;6.15;;
55545;SDS011;44768;50.298;127.520;2023-03-14T22:46:44;17.77;;;5.00;;
55545;SDS011;44768;50.298;127.520;2023-03-14T22:51:46;11.20;;;4.85;;
55545;SDS011;44768;50.298;127.520;2023-03-14T22:56:47;14.40;;;4.75;;
55545;SDS011;44768;50.298;127.520;2023-03-14T23:01:48;7.63;;;4.30;;
55545;SDS011;44768;50.298;127.520;2023-03-14T23:06:49;12.13;;;4.68;;
55545;SDS011;44768;50.298;127.520;2023-03-14T23:11:51;15.88;;;4.18;;
55545;SDS011;44768;50.298;127.520;2023-03-14T23:16:52;14.68;;;5.40;;
55545;SDS011;44768;50.298;127.520;2023-03-14T23:21:55;7.97;;;4.18;;
55545;SDS011;44768;50.298;127.520;2023-03-14T23:26:57;11.23;;;4.25;;
55545;SDS011;44768;50.298;127.520;2023-03-14T23:31:58;15.02;;;4.25;;
55545;SDS011;44768;50.298;127.520;2023-03-14T23:37:00;11.50;;;4.70;;
55545;SDS011;44768;50.298;127.520;2023-03-14T23:42:01;13.70;;;4.50;;
55545;SDS011;44768;50.298;127.520;2023-03-14T23:47:02;13.57;;;4.70;;
55545;SDS011;44768;50.298;127.520;2023-03-14T23:52:04;10.90;;;3.95;;
55545;SDS011;44768;50.298;127.520;2023-03-14T23:57:05;8.40;;;4.15;;
